sensor_id;sensor_type;location;lat;lon;timestamp;temperature;humidity
74359;DHT22;62792;46.236;6.040;2022-09-09T00:04:14;23.60;66.70
74359;DHT22;62792;46.236;6.040;2022-09-09T00:09:19;23.40;68.00
74359;DHT22;62792;46.236;6.040;2022-09-09T00:14:31;23.00;70.60
74359;DHT22;62792;46.236;6.040;2022-09-09T00:19:39;23.10;70.00
74359;DHT22;62792;46.236;6.040;2022-09-09T00:24:44;23.40;68.70
74359;DHT22;62792;46.236;6.040;2022-09-09T00:29:50;23.50;68.30
74359;DHT22;62792;46.236;6.040;2022-09-09T00:34:57;23.20;69.60
74359;DHT22;62792;46.236;6.040;2022-09-09T00:40:02;23.30;69.70
74359;DHT22;62792;46.236;6.040;2022-09-09T00:45:11;22.90;70.00
74359;DHT22;62792;46.236;6.040;2022-09-09T00:50:29;22.90;70.30
74359;DHT22;62792;46.236;6.040;2022-09-09T00:55:37;22.70;70.80
74359;DHT22;62792;46.236;6.040;2022-09-09T01:00:43;22.60;71.60
74359;DHT22;62792;46.236;6.040;2022-09-09T01:05:48;22.50;71.30
74359;DHT22;62792;46.236;6.040;2022-09-09T01:10:53;22.50;71.10
74359;DHT22;62792;46.236;6.040;2022-09-09T01:15:56;22.50;70.90
74359;DHT22;62792;46.236;6.040;2022-09-09T01:21:06;22.40;71.90
74359;DHT22;62792;46.236;6.040;2022-09-09T01:26:13;22.30;71.60
74359;DHT22;62792;46.236;6.040;2022-09-09T01:31:17;22.30;71.20
74359;DHT22;62792;46.236;6.040;2022-09-09T01:36:25;22.30;70.70
74359;DHT22;62792;46.236;6.040;2022-09-09T01:41:31;22.20;71.30
74359;DHT22;62792;46.236;6.040;2022-09-09T01:46:34;22.30;71.00
74359;DHT22;62792;46.236;6.040;2022-09-09T01:51:37;22.40;71.10
74359;DHT22;62792;46.236;6.040;2022-09-09T01:56:45;22.40;70.60
74359;DHT22;62792;46.236;6.040;2022-09-09T02:01:53;22.30;70.80
74359;DHT22;62792;46.236;6.040;2022-09-09T02:06:59;22.10;71.10
74359;DHT22;62792;46.236;6.040;2022-09-09T02:12:05;22.20;71.10
74359;DHT22;62792;46.236;6.040;2022-09-09T02:17:11;22.10;71.20
74359;DHT22;62792;46.236;6.040;2022-09-09T02:22:16;22.10;71.10
74359;DHT22;62792;46.236;6.040;2022-09-09T02:27:21;22.00;71.50
74359;DHT22;62792;46.236;6.040;2022-09-09T02:32:24;22.00;71.80
74359;DHT22;62792;46.236;6.040;2022-09-09T02:37:29;21.90;71.80
74359;DHT22;62792;46.236;6.040;2022-09-09T02:42:39;22.00;71.70
74359;DHT22;62792;46.236;6.040;2022-09-09T02:47:43;21.80;72.40
74359;DHT22;62792;46.236;6.040;2022-09-09T02:52:52;22.00;72.20
74359;DHT22;62792;46.236;6.040;2022-09-09T02:57:58;22.00;71.70
74359;DHT22;62792;46.236;6.040;2022-09-09T03:03:01;22.00;71.80
74359;DHT22;62792;46.236;6.040;2022-09-09T03:08:04;22.00;71.90
74359;DHT22;62792;46.236;6.040;2022-09-09T03:13:09;22.10;71.60
74359;DHT22;62792;46.236;6.040;2022-09-09T03:18:14;22.00;72.40
74359;DHT22;62792;46.236;6.040;2022-09-09T03:23:16;22.00;72.00
74359;DHT22;62792;46.236;6.040;2022-09-09T03:28:20;22.00;71.60
74359;DHT22;62792;46.236;6.040;2022-09-09T03:33:24;21.80;72.70
74359;DHT22;62792;46.236;6.040;2022-09-09T03:38:27;21.90;73.00
74359;DHT22;62792;46.236;6.040;2022-09-09T03:43:31;21.80;72.90
74359;DHT22;62792;46.236;6.040;2022-09-09T03:48:34;21.90;72.30
74359;DHT22;62792;46.236;6.040;2022-09-09T03:53:38;21.80;72.70
74359;DHT22;62792;46.236;6.040;2022-09-09T03:58:42;21.80;72.20
74359;DHT22;62792;46.236;6.040;2022-09-09T04:03:45;22.00;72.30
74359;DHT22;62792;46.236;6.040;2022-09-09T04:08:47;21.90;71.50
74359;DHT22;62792;46.236;6.040;2022-09-09T04:13:52;21.80;71.90
74359;DHT22;62792;46.236;6.040;2022-09-09T04:18:54;22.00;71.80
74359;DHT22;62792;46.236;6.040;2022-09-09T04:23:59;22.00;71.70
74359;DHT22;62792;46.236;6.040;2022-09-09T04:29:03;21.90;72.00
74359;DHT22;62792;46.236;6.040;2022-09-09T04:34:06;21.90;71.80
74359;DHT22;62792;46.236;6.040;2022-09-09T04:39:09;21.90;71.20
74359;DHT22;62792;46.236;6.040;2022-09-09T04:44:13;21.90;71.60
74359;DHT22;62792;46.236;6.040;2022-09-09T04:49:15;21.80;71.70
74359;DHT22;62792;46.236;6.040;2022-09-09T04:54:19;21.80;71.90
74359;DHT22;62792;46.236;6.040;2022-09-09T04:59:23;21.90;72.60
74359;DHT22;62792;46.236;6.040;2022-09-09T05:04:25;21.90;72.10
74359;DHT22;62792;46.236;6.040;2022-09-09T05:09:30;21.90;72.30
74359;DHT22;62792;46.236;6.040;2022-09-09T05:14:34;21.80;72.40
74359;DHT22;62792;46.236;6.040;2022-09-09T05:19:38;21.70;72.10
74359;DHT22;62792;46.236;6.040;2022-09-09T05:24:41;21.60;72.80
74359;DHT22;62792;46.236;6.040;2022-09-09T05:29:45;21.70;72.70
74359;DHT22;62792;46.236;6.040;2022-09-09T05:34:48;21.70;72.80
74359;DHT22;62792;46.236;6.040;2022-09-09T05:39:50;21.80;73.10
74359;DHT22;62792;46.236;6.040;2022-09-09T05:44:56;21.90;72.60
74359;DHT22;62792;46.236;6.040;2022-09-09T05:49:58;21.70;72.50
74359;DHT22;62792;46.236;6.040;2022-09-09T05:55:01;21.60;72.70
74359;DHT22;62792;46.236;6.040;2022-09-09T06:00:07;21.60;72.20
74359;DHT22;62792;46.236;6.040;2022-09-09T06:05:10;21.60;71.70
74359;DHT22;62792;46.236;6.040;2022-09-09T06:10:14;21.70;71.90
74359;DHT22;62792;46.236;6.040;2022-09-09T06:15:19;21.80;71.80
74359;DHT22;62792;46.236;6.040;2022-09-09T06:20:22;21.60;72.60
74359;DHT22;62792;46.236;6.040;2022-09-09T06:25:24;21.70;72.00
74359;DHT22;62792;46.236;6.040;2022-09-09T06:30:28;21.70;71.60
74359;DHT22;62792;46.236;6.040;2022-09-09T06:35:31;21.60;71.70
74359;DHT22;62792;46.236;6.040;2022-09-09T06:40:34;21.80;70.00
74359;DHT22;62792;46.236;6.040;2022-09-09T06:45:38;21.80;68.50
74359;DHT22;62792;46.236;6.040;2022-09-09T06:50:41;22.00;67.90
74359;DHT22;62792;46.236;6.040;2022-09-09T06:55:44;22.50;67.10
74359;DHT22;62792;46.236;6.040;2022-09-09T07:00:48;22.90;66.10
74359;DHT22;62792;46.236;6.040;2022-09-09T07:05:54;23.00;66.20
74359;DHT22;62792;46.236;6.040;2022-09-09T07:11:01;23.20;66.00
74359;DHT22;62792;46.236;6.040;2022-09-09T07:16:06;23.40;66.40
74359;DHT22;62792;46.236;6.040;2022-09-09T07:21:10;23.50;66.20
74359;DHT22;62792;46.236;6.040;2022-09-09T07:26:14;23.60;65.50
74359;DHT22;62792;46.236;6.040;2022-09-09T07:31:19;23.80;65.30
74359;DHT22;62792;46.236;6.040;2022-09-09T07:36:23;23.90;65.40
74359;DHT22;62792;46.236;6.040;2022-09-09T07:41:34;24.00;64.90
74359;DHT22;62792;46.236;6.040;2022-09-09T07:46:39;24.10;64.70
74359;DHT22;62792;46.236;6.040;2022-09-09T07:51:42;24.30;64.80
74359;DHT22;62792;46.236;6.040;2022-09-09T07:56:45;24.30;64.50
74359;DHT22;62792;46.236;6.040;2022-09-09T08:01:50;24.30;64.40
74359;DHT22;62792;46.236;6.040;2022-09-09T08:06:55;24.30;64.10
74359;DHT22;62792;46.236;6.040;2022-09-09T08:11:58;24.40;63.20
74359;DHT22;62792;46.236;6.040;2022-09-09T08:17:04;24.50;62.80
74359;DHT22;62792;46.236;6.040;2022-09-09T08:22:06;24.50;62.50
74359;DHT22;62792;46.236;6.040;2022-09-09T08:27:11;24.60;62.10
74359;DHT22;62792;46.236;6.040;2022-09-09T08:32:15;24.70;61.50
74359;DHT22;62792;46.236;6.040;2022-09-09T08:37:20;24.70;61.50
74359;DHT22;62792;46.236;6.040;2022-09-09T08:42:25;24.80;60.80
74359;DHT22;62792;46.236;6.040;2022-09-09T08:47:34;24.70;60.10
74359;DHT22;62792;46.236;6.040;2022-09-09T08:52:44;24.80;59.40
74359;DHT22;62792;46.236;6.040;2022-09-09T08:57:50;24.90;59.50
74359;DHT22;62792;46.236;6.040;2022-09-09T09:02:59;24.90;59.50
74359;DHT22;62792;46.236;6.040;2022-09-09T09:08:08;24.90;59.10
74359;DHT22;62792;46.236;6.040;2022-09-09T09:13:14;24.90;58.50
74359;DHT22;62792;46.236;6.040;2022-09-09T09:18:19;24.90;57.90
74359;DHT22;62792;46.236;6.040;2022-09-09T09:23:23;25.00;57.60
74359;DHT22;62792;46.236;6.040;2022-09-09T09:28:28;25.00;57.60
74359;DHT22;62792;46.236;6.040;2022-09-09T09:33:33;25.10;57.40
74359;DHT22;62792;46.236;6.040;2022-09-09T09:38:37;25.20;57.30
74359;DHT22;62792;46.236;6.040;2022-09-09T09:44:01;25.20;57.30
74359;DHT22;62792;46.236;6.040;2022-09-09T09:49:09;25.20;57.30
74359;DHT22;62792;46.236;6.040;2022-09-09T09:54:17;25.20;57.60
74359;DHT22;62792;46.236;6.040;2022-09-09T09:59:32;25.30;56.90
74359;DHT22;62792;46.236;6.040;2022-09-09T10:04:42;25.20;56.90
74359;DHT22;62792;46.236;6.040;2022-09-09T10:09:47;25.30;56.70
74359;DHT22;62792;46.236;6.040;2022-09-09T10:14:52;25.40;57.00
74359;DHT22;62792;46.236;6.040;2022-09-09T10:20:04;25.40;57.00
74359;DHT22;62792;46.236;6.040;2022-09-09T10:25:20;25.40;56.60
74359;DHT22;62792;46.236;6.040;2022-09-09T10:30:26;25.50;56.60
74359;DHT22;62792;46.236;6.040;2022-09-09T10:35:35;25.50;56.70
74359;DHT22;62792;46.236;6.040;2022-09-09T10:40:38;25.60;56.60
74359;DHT22;62792;46.236;6.040;2022-09-09T10:45:49;25.70;56.40
74359;DHT22;62792;46.236;6.040;2022-09-09T10:50:56;25.70;56.40
74359;DHT22;62792;46.236;6.040;2022-09-09T10:56:06;25.80;56.50
74359;DHT22;62792;46.236;6.040;2022-09-09T11:01:12;25.80;56.50
74359;DHT22;62792;46.236;6.040;2022-09-09T11:06:19;25.70;56.40
74359;DHT22;62792;46.236;6.040;2022-09-09T11:11:25;25.80;56.40
74359;DHT22;62792;46.236;6.040;2022-09-09T11:16:29;25.90;56.40
74359;DHT22;62792;46.236;6.040;2022-09-09T11:21:35;25.90;56.20
74359;DHT22;62792;46.236;6.040;2022-09-09T11:26:42;26.00;56.20
74359;DHT22;62792;46.236;6.040;2022-09-09T11:31:52;25.90;56.10
74359;DHT22;62792;46.236;6.040;2022-09-09T11:42:22;26.00;56.10
74359;DHT22;62792;46.236;6.040;2022-09-09T11:47:26;26.00;55.90
74359;DHT22;62792;46.236;6.040;2022-09-09T11:52:35;26.00;53.80
74359;DHT22;62792;46.236;6.040;2022-09-09T11:57:40;26.00;53.30
74359;DHT22;62792;46.236;6.040;2022-09-09T12:02:49;26.00;52.60
74359;DHT22;62792;46.236;6.040;2022-09-09T12:07:52;25.90;52.70
74359;DHT22;62792;46.236;6.040;2022-09-09T12:13:08;25.90;52.80
74359;DHT22;62792;46.236;6.040;2022-09-09T12:18:21;25.80;52.70
74359;DHT22;62792;46.236;6.040;2022-09-09T12:23:31;25.90;52.90
74359;DHT22;62792;46.236;6.040;2022-09-09T12:28:42;25.80;53.00
74359;DHT22;62792;46.236;6.040;2022-09-09T12:33:46;25.80;53.60
74359;DHT22;62792;46.236;6.040;2022-09-09T12:38:49;25.80;54.20
74359;DHT22;62792;46.236;6.040;2022-09-09T12:44:04;25.70;54.70
74359;DHT22;62792;46.236;6.040;2022-09-09T12:49:20;25.80;55.20
74359;DHT22;62792;46.236;6.040;2022-09-09T12:54:27;25.70;55.50
74359;DHT22;62792;46.236;6.040;2022-09-09T12:59:36;25.80;55.60
74359;DHT22;62792;46.236;6.040;2022-09-09T13:04:39;25.90;55.60
74359;DHT22;62792;46.236;6.040;2022-09-09T13:09:41;25.90;55.40
74359;DHT22;62792;46.236;6.040;2022-09-09T13:14:46;25.80;55.50
74359;DHT22;62792;46.236;6.040;2022-09-09T13:19:49;25.90;55.10
74359;DHT22;62792;46.236;6.040;2022-09-09T13:25:05;25.90;54.60
74359;DHT22;62792;46.236;6.040;2022-09-09T13:30:21;25.90;54.00
74359;DHT22;62792;46.236;6.040;2022-09-09T13:35:25;25.90;53.30
74359;DHT22;62792;46.236;6.040;2022-09-09T13:40:27;26.00;52.90
74359;DHT22;62792;46.236;6.040;2022-09-09T13:45:33;26.10;53.30
74359;DHT22;62792;46.236;6.040;2022-09-09T13:50:36;26.20;53.10
74359;DHT22;62792;46.236;6.040;2022-09-09T13:55:38;26.20;53.10
74359;DHT22;62792;46.236;6.040;2022-09-09T14:00:43;26.30;53.10
74359;DHT22;62792;46.236;6.040;2022-09-09T14:05:46;26.30;53.10
74359;DHT22;62792;46.236;6.040;2022-09-09T14:10:48;26.20;52.90
74359;DHT22;62792;46.236;6.040;2022-09-09T14:15:53;26.10;52.80
74359;DHT22;62792;46.236;6.040;2022-09-09T14:20:56;26.20;53.40
74359;DHT22;62792;46.236;6.040;2022-09-09T14:25:58;26.10;54.10
74359;DHT22;62792;46.236;6.040;2022-09-09T14:31:03;26.00;54.40
74359;DHT22;62792;46.236;6.040;2022-09-09T14:36:06;26.00;54.90
74359;DHT22;62792;46.236;6.040;2022-09-09T14:41:10;26.10;55.30
74359;DHT22;62792;46.236;6.040;2022-09-09T14:46:15;26.10;55.50
74359;DHT22;62792;46.236;6.040;2022-09-09T14:51:18;26.20;55.80
74359;DHT22;62792;46.236;6.040;2022-09-09T14:56:24;26.20;55.50
74359;DHT22;62792;46.236;6.040;2022-09-09T15:01:29;26.30;55.70
74359;DHT22;62792;46.236;6.040;2022-09-09T15:06:33;26.30;55.90
74359;DHT22;62792;46.236;6.040;2022-09-09T15:11:37;26.30;55.70
74359;DHT22;62792;46.236;6.040;2022-09-09T15:16:41;26.30;56.00
74359;DHT22;62792;46.236;6.040;2022-09-09T15:21:43;26.50;54.50
74359;DHT22;62792;46.236;6.040;2022-09-09T15:26:46;26.60;54.70
74359;DHT22;62792;46.236;6.040;2022-09-09T15:31:50;26.60;54.60
74359;DHT22;62792;46.236;6.040;2022-09-09T15:36:52;26.60;54.60
74359;DHT22;62792;46.236;6.040;2022-09-09T15:41:56;26.70;54.50
74359;DHT22;62792;46.236;6.040;2022-09-09T15:47:00;26.90;54.50
74359;DHT22;62792;46.236;6.040;2022-09-09T15:52:03;26.90;54.30
74359;DHT22;62792;46.236;6.040;2022-09-09T15:57:06;27.20;53.90
74359;DHT22;62792;46.236;6.040;2022-09-09T16:02:10;27.40;53.70
74359;DHT22;62792;46.236;6.040;2022-09-09T16:07:13;27.40;53.80
74359;DHT22;62792;46.236;6.040;2022-09-09T16:12:16;27.40;53.90
74359;DHT22;62792;46.236;6.040;2022-09-09T16:17:20;27.50;53.80
74359;DHT22;62792;46.236;6.040;2022-09-09T16:22:23;27.60;53.90
74359;DHT22;62792;46.236;6.040;2022-09-09T16:27:25;27.50;53.80
74359;DHT22;62792;46.236;6.040;2022-09-09T16:32:29;27.50;53.90
74359;DHT22;62792;46.236;6.040;2022-09-09T16:37:32;27.20;54.20
74359;DHT22;62792;46.236;6.040;2022-09-09T16:42:36;27.10;54.30
74359;DHT22;62792;46.236;6.040;2022-09-09T16:47:41;27.00;54.70
74359;DHT22;62792;46.236;6.040;2022-09-09T16:52:45;26.80;54.70
74359;DHT22;62792;46.236;6.040;2022-09-09T16:57:47;26.80;54.90
74359;DHT22;62792;46.236;6.040;2022-09-09T17:02:52;26.70;55.00
74359;DHT22;62792;46.236;6.040;2022-09-09T17:07:55;26.60;55.00
74359;DHT22;62792;46.236;6.040;2022-09-09T17:12:58;26.50;55.50
74359;DHT22;62792;46.236;6.040;2022-09-09T17:18:04;26.40;55.50
74359;DHT22;62792;46.236;6.040;2022-09-09T17:23:07;26.30;56.40
74359;DHT22;62792;46.236;6.040;2022-09-09T17:28:09;26.30;56.50
74359;DHT22;62792;46.236;6.040;2022-09-09T17:33:13;26.20;56.70
74359;DHT22;62792;46.236;6.040;2022-09-09T17:38:16;26.20;56.80
74359;DHT22;62792;46.236;6.040;2022-09-09T17:43:18;26.10;57.00
74359;DHT22;62792;46.236;6.040;2022-09-09T17:48:22;26.10;57.00
74359;DHT22;62792;46.236;6.040;2022-09-09T17:53:25;26.00;57.10
74359;DHT22;62792;46.236;6.040;2022-09-09T17:58:28;26.00;57.10
74359;DHT22;62792;46.236;6.040;2022-09-09T18:03:34;25.90;56.90
74359;DHT22;62792;46.236;6.040;2022-09-09T18:08:37;25.80;57.10
74359;DHT22;62792;46.236;6.040;2022-09-09T18:13:40;25.80;57.60
74359;DHT22;62792;46.236;6.040;2022-09-09T18:18:44;25.70;57.40
74359;DHT22;62792;46.236;6.040;2022-09-09T18:23:46;25.60;57.30
74359;DHT22;62792;46.236;6.040;2022-09-09T18:28:53;25.60;57.70
74359;DHT22;62792;46.236;6.040;2022-09-09T18:33:57;25.50;57.70
74359;DHT22;62792;46.236;6.040;2022-09-09T18:39:01;25.60;57.70
74359;DHT22;62792;46.236;6.040;2022-09-09T18:44:05;25.50;57.80
74359;DHT22;62792;46.236;6.040;2022-09-09T18:49:10;25.40;57.90
74359;DHT22;62792;46.236;6.040;2022-09-09T18:54:13;25.40;58.10
74359;DHT22;62792;46.236;6.040;2022-09-09T18:59:17;25.40;58.40
74359;DHT22;62792;46.236;6.040;2022-09-09T19:04:22;25.40;58.30
74359;DHT22;62792;46.236;6.040;2022-09-09T19:09:26;25.30;58.10
74359;DHT22;62792;46.236;6.040;2022-09-09T19:14:30;25.30;58.30
74359;DHT22;62792;46.236;6.040;2022-09-09T19:19:35;25.20;58.30
74359;DHT22;62792;46.236;6.040;2022-09-09T19:24:38;25.20;58.60
74359;DHT22;62792;46.236;6.040;2022-09-09T19:29:43;25.10;58.50
74359;DHT22;62792;46.236;6.040;2022-09-09T19:34:47;25.10;58.40
74359;DHT22;62792;46.236;6.040;2022-09-09T19:39:50;25.20;58.80
74359;DHT22;62792;46.236;6.040;2022-09-09T19:44:53;25.10;58.80
74359;DHT22;62792;46.236;6.040;2022-09-09T19:49:58;25.20;58.80
74359;DHT22;62792;46.236;6.040;2022-09-09T19:55:01;25.10;59.00
74359;DHT22;62792;46.236;6.040;2022-09-09T20:00:03;25.00;59.00
74359;DHT22;62792;46.236;6.040;2022-09-09T20:05:08;25.00;59.10
74359;DHT22;62792;46.236;6.040;2022-09-09T20:10:11;25.00;59.10
74359;DHT22;62792;46.236;6.040;2022-09-09T20:15:13;25.10;59.20
74359;DHT22;62792;46.236;6.040;2022-09-09T20:20:18;25.00;59.30
74359;DHT22;62792;46.236;6.040;2022-09-09T20:25:20;25.00;59.50
74359;DHT22;62792;46.236;6.040;2022-09-09T20:30:24;25.00;59.30
74359;DHT22;62792;46.236;6.040;2022-09-09T20:35:28;25.10;59.20
74359;DHT22;62792;46.236;6.040;2022-09-09T20:40:33;25.00;59.30
74359;DHT22;62792;46.236;6.040;2022-09-09T20:45:37;25.00;59.60
74359;DHT22;62792;46.236;6.040;2022-09-09T20:50:41;24.90;59.70
74359;DHT22;62792;46.236;6.040;2022-09-09T20:55:45;24.90;59.80
74359;DHT22;62792;46.236;6.040;2022-09-09T21:00:51;24.90;59.80
74359;DHT22;62792;46.236;6.040;2022-09-09T21:05:56;24.90;59.70
74359;DHT22;62792;46.236;6.040;2022-09-09T21:10:59;24.90;59.80
74359;DHT22;62792;46.236;6.040;2022-09-09T21:16:03;24.80;60.10
74359;DHT22;62792;46.236;6.040;2022-09-09T21:21:07;24.80;59.80
74359;DHT22;62792;46.236;6.040;2022-09-09T21:26:10;24.80;60.00
74359;DHT22;62792;46.236;6.040;2022-09-09T21:31:13;24.80;59.80
74359;DHT22;62792;46.236;6.040;2022-09-09T21:36:18;24.70;60.10
74359;DHT22;62792;46.236;6.040;2022-09-09T21:41:20;24.80;60.20
74359;DHT22;62792;46.236;6.040;2022-09-09T21:46:23;24.80;60.40
74359;DHT22;62792;46.236;6.040;2022-09-09T21:51:28;24.80;60.20
74359;DHT22;62792;46.236;6.040;2022-09-09T21:56:31;24.80;60.20
74359;DHT22;62792;46.236;6.040;2022-09-09T22:01:33;24.80;60.70
74359;DHT22;62792;46.236;6.040;2022-09-09T22:06:37;24.70;60.40
74359;DHT22;62792;46.236;6.040;2022-09-09T22:11:40;24.80;60.60
74359;DHT22;62792;46.236;6.040;2022-09-09T22:16:43;24.60;60.30
74359;DHT22;62792;46.236;6.040;2022-09-09T22:21:46;24.80;60.30
74359;DHT22;62792;46.236;6.040;2022-09-09T22:26:50;24.70;60.70
74359;DHT22;62792;46.236;6.040;2022-09-09T22:31:55;24.70;60.70
74359;DHT22;62792;46.236;6.040;2022-09-09T22:37:00;24.70;60.70
74359;DHT22;62792;46.236;6.040;2022-09-09T22:42:02;24.70;60.60
74359;DHT22;62792;46.236;6.040;2022-09-09T22:47:06;24.70;60.80
74359;DHT22;62792;46.236;6.040;2022-09-09T22:52:10;24.70;61.10
74359;DHT22;62792;46.236;6.040;2022-09-09T22:57:13;24.60;61.00
74359;DHT22;62792;46.236;6.040;2022-09-09T23:02:16;24.60;60.90
74359;DHT22;62792;46.236;6.040;2022-09-09T23:07:22;24.60;61.00
74359;DHT22;62792;46.236;6.040;2022-09-09T23:12:24;24.60;61.10
74359;DHT22;62792;46.236;6.040;2022-09-09T23:17:27;24.60;61.20
74359;DHT22;62792;46.236;6.040;2022-09-09T23:22:33;24.60;61.00
74359;DHT22;62792;46.236;6.040;2022-09-09T23:27:36;24.60;61.40
74359;DHT22;62792;46.236;6.040;2022-09-09T23:32:39;24.60;61.40
74359;DHT22;62792;46.236;6.040;2022-09-09T23:37:43;24.60;61.30
74359;DHT22;62792;46.236;6.040;2022-09-09T23:42:45;24.60;61.50
74359;DHT22;62792;46.236;6.040;2022-09-09T23:47:49;24.60;61.30
74359;DHT22;62792;46.236;6.040;2022-09-09T23:52:53;24.50;61.80
74359;DHT22;62792;46.236;6.040;2022-09-09T23:57:55;24.60;61.40
